createdAt,value
2022-11-03T00:00:12.339Z,0.00
2022-11-03T00:01:07.263Z,0.00
2022-11-03T00:02:07.350Z,0.00
2022-11-03T00:03:07.624Z,0.00
2022-11-03T00:04:07.235Z,0.00
2022-11-03T00:05:07.243Z,0.00
2022-11-03T00:06:07.218Z,0.00
2022-11-03T00:07:07.197Z,0.00
2022-11-03T00:08:07.256Z,0.00
2022-11-03T00:09:07.201Z,0.00
2022-11-03T00:10:07.168Z,0.00
2022-11-03T00:11:07.168Z,0.00
2022-11-03T00:12:07.154Z,0.00
2022-11-03T00:13:07.388Z,0.00
2022-11-03T00:14:07.137Z,0.00
2022-11-03T00:15:07.109Z,0.00
2022-11-03T00:16:07.109Z,0.00
2022-11-03T00:17:07.083Z,0.00
2022-11-03T00:18:07.076Z,0.00
2022-11-03T00:19:07.068Z,0.00
2022-11-03T00:20:07.077Z,0.00
2022-11-03T00:21:07.038Z,0.00
2022-11-03T00:22:07.054Z,0.00
2022-11-03T00:23:07.443Z,0.00
2022-11-03T00:24:07.012Z,0.00
2022-11-03T00:25:07.000Z,0.00
2022-11-03T00:26:06.988Z,0.00
2022-11-03T00:27:07.003Z,0.00
2022-11-03T00:28:06.979Z,0.00
2022-11-03T00:29:06.964Z,0.00
2022-11-03T00:30:06.948Z,0.00
2022-11-03T00:31:06.936Z,0.00
2022-11-03T00:32:06.945Z,0.00
2022-11-03T00:33:07.271Z,0.00
2022-11-03T00:34:06.908Z,0.00
2022-11-03T00:35:06.892Z,0.00
2022-11-03T00:36:06.884Z,0.00
2022-11-03T00:37:06.882Z,0.00
2022-11-03T00:38:06.860Z,0.00
2022-11-03T00:39:06.856Z,0.00
2022-11-03T00:40:06.839Z,0.00
2022-11-03T00:41:06.839Z,0.00
2022-11-03T00:42:06.835Z,0.00
2022-11-03T00:43:07.307Z,0.00
2022-11-03T00:44:06.803Z,0.00
2022-11-03T00:45:06.784Z,0.00
2022-11-03T00:46:06.774Z,0.00
2022-11-03T00:47:06.768Z,0.00
2022-11-03T00:48:06.754Z,0.00
2022-11-03T00:49:06.775Z,0.00
2022-11-03T00:50:06.728Z,0.00
2022-11-03T00:51:06.718Z,0.00
2022-11-03T00:52:06.717Z,0.00
2022-11-03T00:53:07.180Z,0.00
2022-11-03T00:54:06.688Z,0.00
2022-11-03T00:55:06.673Z,0.00
2022-11-03T00:56:06.666Z,0.00
2022-11-03T00:57:06.666Z,0.00
2022-11-03T00:58:06.653Z,0.00
2022-11-03T00:59:06.626Z,0.00
2022-11-03T01:00:06.620Z,0.00
2022-11-03T01:01:06.649Z,0.00
2022-11-03T01:02:06.728Z,0.00
2022-11-03T01:03:06.966Z,0.00
2022-11-03T01:04:06.569Z,0.00
2022-11-03T01:05:06.556Z,0.00
2022-11-03T01:06:06.545Z,0.00
2022-11-03T01:07:06.554Z,0.00
2022-11-03T01:08:06.541Z,0.00
2022-11-03T01:09:06.509Z,0.00
2022-11-03T01:10:06.505Z,0.00
2022-11-03T01:11:06.490Z,0.00
2022-11-03T01:12:06.654Z,0.00
2022-11-03T01:13:06.976Z,0.00
2022-11-03T01:14:06.482Z,0.00
2022-11-03T01:15:06.454Z,0.00
2022-11-03T01:16:06.441Z,0.00
2022-11-03T01:17:06.431Z,0.00
2022-11-03T01:18:06.433Z,0.00
2022-11-03T01:19:06.411Z,0.00
2022-11-03T01:20:06.421Z,0.00
2022-11-03T01:21:06.387Z,0.00
2022-11-03T01:22:09.634Z,0.00
2022-11-03T01:23:06.624Z,0.00
2022-11-03T01:24:06.348Z,0.00
2022-11-03T01:25:06.338Z,0.00
2022-11-03T01:26:06.333Z,0.00
2022-11-03T01:27:06.323Z,0.00
2022-11-03T01:28:06.374Z,0.00
2022-11-03T01:29:06.325Z,0.00
2022-11-03T01:30:06.294Z,0.00
2022-11-03T01:31:06.302Z,0.00
2022-11-03T01:32:06.265Z,0.00
2022-11-03T01:33:06.419Z,0.00
2022-11-03T01:34:06.238Z,0.00
2022-11-03T01:35:06.228Z,0.00
2022-11-03T01:36:06.214Z,0.00
2022-11-03T01:37:06.213Z,0.00
2022-11-03T01:38:06.212Z,0.00
2022-11-03T01:39:06.179Z,0.00
2022-11-03T01:40:06.186Z,0.00
2022-11-03T01:41:06.169Z,0.00
2022-11-03T01:42:06.149Z,0.00
2022-11-03T01:43:06.399Z,0.00
2022-11-03T01:44:06.126Z,0.00
2022-11-03T01:45:06.139Z,0.00
2022-11-03T01:46:06.113Z,0.00
2022-11-03T01:47:06.108Z,0.00
2022-11-03T01:48:06.090Z,0.00
2022-11-03T01:49:06.079Z,0.00
2022-11-03T01:50:06.081Z,0.00
2022-11-03T01:51:06.066Z,0.00
2022-11-03T01:52:06.034Z,0.00
2022-11-03T01:53:06.504Z,0.00
2022-11-03T01:54:06.032Z,0.00
2022-11-03T01:55:06.012Z,0.00
2022-11-03T01:56:06.008Z,0.00
2022-11-03T01:57:05.994Z,0.00
2022-11-03T01:58:05.978Z,0.00
2022-11-03T01:59:05.973Z,0.00
2022-11-03T02:00:05.950Z,0.00
2022-11-03T02:01:06.016Z,0.00
2022-11-03T02:02:06.040Z,0.00
2022-11-03T02:03:06.350Z,0.00
2022-11-03T02:04:05.911Z,0.00
2022-11-03T02:05:05.899Z,0.00
2022-11-03T02:06:05.887Z,0.00
2022-11-03T02:07:05.877Z,0.00
2022-11-03T02:08:05.925Z,0.00
2022-11-03T02:09:05.865Z,0.00
2022-11-03T02:10:05.833Z,0.00
2022-11-03T02:11:05.832Z,0.00
2022-11-03T02:12:05.811Z,0.00
2022-11-03T02:13:06.133Z,0.00
2022-11-03T02:14:05.807Z,0.00
2022-11-03T02:15:05.801Z,0.00
2022-11-03T02:16:05.773Z,0.00
2022-11-03T02:17:05.766Z,0.00
2022-11-03T02:18:05.752Z,0.00
2022-11-03T02:19:05.742Z,0.00
2022-11-03T02:20:05.744Z,0.00
2022-11-03T02:21:05.718Z,0.00
2022-11-03T02:22:05.722Z,0.00
2022-11-03T02:23:06.089Z,0.00
2022-11-03T02:24:05.686Z,0.00
2022-11-03T02:25:05.685Z,0.00
2022-11-03T02:26:05.662Z,0.00
2022-11-03T02:27:05.646Z,0.00
2022-11-03T02:28:05.640Z,0.00
2022-11-03T02:29:05.634Z,0.00
2022-11-03T02:30:05.629Z,0.00
2022-11-03T02:31:05.610Z,0.00
2022-11-03T02:32:05.590Z,0.00
2022-11-03T02:33:05.966Z,0.00
2022-11-03T02:34:05.575Z,0.00
2022-11-03T02:35:05.574Z,0.00
2022-11-03T02:36:05.563Z,0.00
2022-11-03T02:37:05.544Z,0.00
2022-11-03T02:38:05.523Z,0.00
2022-11-03T02:39:05.527Z,0.00
2022-11-03T02:40:05.506Z,0.00
2022-11-03T02:41:05.513Z,0.00
2022-11-03T02:42:05.486Z,0.00
2022-11-03T02:43:05.777Z,0.00
2022-11-03T02:44:05.473Z,0.00
2022-11-03T02:45:05.454Z,0.00
2022-11-03T02:46:05.444Z,0.00
2022-11-03T02:47:05.432Z,0.00
2022-11-03T02:48:05.419Z,0.00
2022-11-03T02:49:05.409Z,0.00
2022-11-03T02:50:05.389Z,0.00
2022-11-03T02:51:05.430Z,0.00
2022-11-03T02:52:05.379Z,0.00
2022-11-03T02:53:05.739Z,0.00
2022-11-03T02:54:05.354Z,0.00
2022-11-03T02:55:05.336Z,0.00
2022-11-03T02:56:05.331Z,0.00
2022-11-03T02:57:05.337Z,0.00
2022-11-03T02:58:05.311Z,0.00
2022-11-03T02:59:05.303Z,0.00
2022-11-03T03:00:05.286Z,0.00
2022-11-03T03:01:05.354Z,0.00
2022-11-03T03:02:05.443Z,0.00
2022-11-03T03:03:05.695Z,0.00
2022-11-03T03:04:05.231Z,0.00
2022-11-03T03:05:05.240Z,0.00
2022-11-03T03:06:05.227Z,0.00
2022-11-03T03:07:05.215Z,0.00
2022-11-03T03:08:05.193Z,0.00
2022-11-03T03:09:05.182Z,0.00
2022-11-03T03:10:05.167Z,0.00
2022-11-03T03:11:05.164Z,0.00
2022-11-03T03:12:05.161Z,0.00
2022-11-03T03:13:05.641Z,0.00
2022-11-03T03:14:05.128Z,0.00
2022-11-03T03:15:05.140Z,0.00
2022-11-03T03:16:05.108Z,0.00
2022-11-03T03:17:05.104Z,0.00
2022-11-03T03:18:05.089Z,0.00
2022-11-03T03:19:05.084Z,0.00
2022-11-03T03:20:05.063Z,0.00
2022-11-03T03:21:05.050Z,0.00
2022-11-03T03:22:05.031Z,0.00
2022-11-03T03:23:08.930Z,0.00
2022-11-03T03:24:05.015Z,0.00
2022-11-03T03:25:05.011Z,0.00
2022-11-03T03:26:04.994Z,0.00
2022-11-03T03:27:04.982Z,0.00
2022-11-03T03:28:04.978Z,0.00
2022-11-03T03:29:04.962Z,0.00
2022-11-03T03:30:04.951Z,0.00
2022-11-03T03:31:04.950Z,0.00
2022-11-03T03:32:04.931Z,0.00
2022-11-03T03:33:05.397Z,0.00
2022-11-03T03:34:16.614Z,0.00
2022-11-03T03:35:04.920Z,0.00
2022-11-03T03:36:04.887Z,0.00
2022-11-03T03:37:04.868Z,0.00
2022-11-03T03:38:05.146Z,0.00
2022-11-03T03:39:04.855Z,0.00
2022-11-03T03:40:04.834Z,0.00
2022-11-03T03:41:10.339Z,0.00
2022-11-03T03:42:04.823Z,0.00
2022-11-03T03:43:04.815Z,0.00
2022-11-03T03:44:04.800Z,0.00
2022-11-03T03:45:04.781Z,0.00
2022-11-03T03:46:04.767Z,0.00
2022-11-03T03:47:04.762Z,0.00
2022-11-03T03:48:04.748Z,0.00
2022-11-03T03:49:04.754Z,0.00
2022-11-03T03:50:04.729Z,0.00
2022-11-03T03:51:04.720Z,0.00
2022-11-03T03:52:04.706Z,0.00
2022-11-03T03:53:04.696Z,0.00
2022-11-03T03:54:04.692Z,0.00
2022-11-03T03:55:04.731Z,0.00
2022-11-03T03:56:04.660Z,0.00
2022-11-03T03:57:04.657Z,0.00
2022-11-03T03:58:05.102Z,0.00
2022-11-03T03:59:04.639Z,0.00
2022-11-03T04:00:04.615Z,0.00
2022-11-03T04:01:04.652Z,0.00
2022-11-03T04:02:04.750Z,0.00
2022-11-03T04:03:04.588Z,0.00
2022-11-03T04:04:04.606Z,0.00
2022-11-03T04:05:04.561Z,0.00
2022-11-03T04:06:04.548Z,0.00
2022-11-03T04:07:04.548Z,0.00
2022-11-03T04:08:04.794Z,0.00
2022-11-03T04:09:04.526Z,0.00
2022-11-03T04:10:04.517Z,0.00
2022-11-03T04:11:04.511Z,0.00
2022-11-03T04:12:04.489Z,0.00
2022-11-03T04:13:04.482Z,0.00
2022-11-03T04:14:04.458Z,0.00
2022-11-03T04:15:04.464Z,0.00
2022-11-03T04:16:04.437Z,0.00
2022-11-03T04:17:04.439Z,0.00
2022-11-03T04:18:04.832Z,0.00
2022-11-03T04:19:04.418Z,0.00
2022-11-03T04:20:04.531Z,0.00
2022-11-03T04:21:04.389Z,0.00
2022-11-03T04:22:04.382Z,0.00
2022-11-03T04:23:04.385Z,0.00
2022-11-03T04:24:04.354Z,0.00
2022-11-03T04:25:04.340Z,0.00
2022-11-03T04:26:04.338Z,0.00
2022-11-03T04:27:04.323Z,0.00
2022-11-03T04:28:04.661Z,0.00
2022-11-03T04:29:04.309Z,0.00
2022-11-03T04:30:04.293Z,0.00
2022-11-03T04:31:04.287Z,0.00
2022-11-03T04:32:04.290Z,0.00
2022-11-03T04:33:04.262Z,0.00
2022-11-03T04:34:04.258Z,0.00
2022-11-03T04:35:04.253Z,0.00
2022-11-03T04:36:04.232Z,0.00
2022-11-03T04:37:04.207Z,0.00
2022-11-03T04:38:04.612Z,0.00
2022-11-03T04:39:04.194Z,0.00
2022-11-03T04:40:04.182Z,0.00
2022-11-03T04:41:04.180Z,0.00
2022-11-03T04:42:04.149Z,0.00
2022-11-03T04:43:04.500Z,0.00
2022-11-03T04:44:04.128Z,0.00
2022-11-03T04:45:04.131Z,0.00
2022-11-03T04:46:04.135Z,0.00
2022-11-03T04:47:04.120Z,0.00
2022-11-03T04:48:04.089Z,0.00
2022-11-03T04:49:04.080Z,0.00
2022-11-03T04:50:04.067Z,0.00
2022-11-03T04:51:04.058Z,0.00
2022-11-03T04:52:04.048Z,0.00
2022-11-03T04:53:04.347Z,0.00
2022-11-03T04:54:04.025Z,0.00
2022-11-03T04:55:04.007Z,0.00
2022-11-03T04:56:07.430Z,0.00
2022-11-03T04:57:04.003Z,0.00
2022-11-03T04:58:03.982Z,0.00
2022-11-03T04:59:03.973Z,0.00
2022-11-03T05:00:03.962Z,0.00
2022-11-03T05:01:04.073Z,0.00
2022-11-03T05:02:04.147Z,0.00
2022-11-03T05:03:03.924Z,0.00
2022-11-03T05:04:03.911Z,0.00
2022-11-03T05:05:03.910Z,0.00
2022-11-03T05:06:03.880Z,0.00
2022-11-03T05:07:03.887Z,0.00
2022-11-03T05:08:03.863Z,0.00
2022-11-03T05:09:03.864Z,0.00
2022-11-03T05:10:03.843Z,0.00
2022-11-03T05:11:03.832Z,0.00
2022-11-03T05:12:03.830Z,0.00
2022-11-03T05:13:04.057Z,0.00
2022-11-03T05:14:03.794Z,0.00
2022-11-03T05:15:03.802Z,0.00
2022-11-03T05:16:03.770Z,0.00
2022-11-03T05:17:03.809Z,0.00
2022-11-03T05:18:03.758Z,0.00
2022-11-03T05:19:03.749Z,0.00
2022-11-03T05:20:03.747Z,0.00
2022-11-03T05:21:03.719Z,0.00
2022-11-03T05:22:03.704Z,0.00
2022-11-03T05:23:04.026Z,0.00
2022-11-03T05:24:03.848Z,0.00
2022-11-03T05:25:03.694Z,0.00
2022-11-03T05:26:03.686Z,0.00
2022-11-03T05:27:03.658Z,0.00
2022-11-03T05:28:03.856Z,0.00
2022-11-03T05:29:03.637Z,0.00
2022-11-03T05:30:03.629Z,0.00
2022-11-03T05:31:03.629Z,0.00
2022-11-03T05:32:03.606Z,0.00
2022-11-03T05:33:03.623Z,0.00
2022-11-03T05:34:03.582Z,0.00
2022-11-03T05:35:03.573Z,0.00
2022-11-03T05:36:03.561Z,0.00
2022-11-03T05:37:03.554Z,0.00
2022-11-03T05:38:03.785Z,0.00
2022-11-03T05:39:03.539Z,0.00
2022-11-03T05:40:03.511Z,0.00
2022-11-03T05:41:03.512Z,4.00
2022-11-03T05:42:03.493Z,4.00
2022-11-03T05:43:06.316Z,0.00
2022-11-03T05:44:03.480Z,0.00
2022-11-03T05:45:03.464Z,4.00
2022-11-03T05:46:03.597Z,4.00
2022-11-03T05:47:05.967Z,4.00
2022-11-03T05:48:03.928Z,4.00
2022-11-03T05:49:03.432Z,4.00
2022-11-03T05:50:03.399Z,4.00
2022-11-03T05:51:03.397Z,4.00
2022-11-03T05:52:03.389Z,8.00
2022-11-03T05:53:03.366Z,8.00
2022-11-03T05:54:03.371Z,12.00
2022-11-03T05:55:03.366Z,12.00
2022-11-03T05:56:03.343Z,16.00
2022-11-03T05:57:03.332Z,16.00
2022-11-03T05:58:03.447Z,16.00
2022-11-03T05:59:03.303Z,24.00
2022-11-03T06:00:03.315Z,24.00
2022-11-03T06:01:03.292Z,24.00
2022-11-03T06:02:03.409Z,28.00
2022-11-03T06:03:03.302Z,32.00
2022-11-03T06:04:03.331Z,36.00
2022-11-03T06:05:03.244Z,36.00
2022-11-03T06:06:03.238Z,44.00
2022-11-03T06:07:03.219Z,48.00
2022-11-03T06:08:03.417Z,48.00
2022-11-03T06:09:03.191Z,52.00
2022-11-03T06:10:03.193Z,56.00
2022-11-03T06:11:03.176Z,60.00
2022-11-03T06:12:03.172Z,60.00
2022-11-03T06:13:03.419Z,64.00
2022-11-03T06:14:03.139Z,72.00
2022-11-03T06:15:03.161Z,76.00
2022-11-03T06:16:03.126Z,80.00
2022-11-03T06:17:03.106Z,80.00
2022-11-03T06:18:03.101Z,88.00
2022-11-03T06:19:03.087Z,92.00
2022-11-03T06:20:03.073Z,96.00
2022-11-03T06:21:03.079Z,100.00
2022-11-03T06:22:03.063Z,108.00
2022-11-03T06:23:03.148Z,116.00
2022-11-03T06:24:03.035Z,116.00
2022-11-03T06:25:03.015Z,124.00
2022-11-03T06:26:03.018Z,128.00
2022-11-03T06:27:02.998Z,136.00
2022-11-03T06:28:02.996Z,144.00
2022-11-03T06:29:02.986Z,148.00
2022-11-03T06:30:02.970Z,152.00
2022-11-03T06:31:02.961Z,160.00
2022-11-03T06:32:02.942Z,168.00
2022-11-03T06:33:03.106Z,172.00
2022-11-03T06:34:02.931Z,176.00
2022-11-03T06:35:02.917Z,184.00
2022-11-03T06:36:02.915Z,188.00
2022-11-03T06:37:02.884Z,200.00
2022-11-03T06:38:02.883Z,208.00
2022-11-03T06:39:02.877Z,212.00
2022-11-03T06:40:02.890Z,220.00
2022-11-03T06:41:02.875Z,228.00
2022-11-03T06:42:02.845Z,236.00
2022-11-03T06:43:02.831Z,244.00
2022-11-03T06:44:02.815Z,256.00
2022-11-03T06:45:02.813Z,264.00
2022-11-03T06:46:02.798Z,276.00
2022-11-03T06:47:02.791Z,280.00
2022-11-03T06:48:02.822Z,292.00
2022-11-03T06:49:02.765Z,304.00
2022-11-03T06:50:02.760Z,316.00
2022-11-03T06:51:02.869Z,324.00
2022-11-03T06:52:02.750Z,336.00
2022-11-03T06:53:02.724Z,344.00
2022-11-03T06:54:02.707Z,348.00
2022-11-03T06:55:02.690Z,376.00
2022-11-03T06:56:02.684Z,392.00
2022-11-03T06:57:02.686Z,404.00
2022-11-03T06:58:02.663Z,388.00
2022-11-03T06:59:02.660Z,384.00
2022-11-03T07:00:20.237Z,392.00
2022-11-03T07:01:03.740Z,416.00
2022-11-03T07:02:02.747Z,428.00
2022-11-03T07:03:02.621Z,432.00
2022-11-03T07:04:02.602Z,440.00
2022-11-03T07:05:02.585Z,452.00
2022-11-03T07:06:02.577Z,464.00
2022-11-03T07:07:02.569Z,476.00
2022-11-03T07:08:02.557Z,496.00
2022-11-03T07:09:02.554Z,520.00
2022-11-03T07:10:02.549Z,564.00
2022-11-03T07:11:02.521Z,600.00
2022-11-03T07:12:02.538Z,624.00
2022-11-03T07:13:06.861Z,660.00
2022-11-03T07:14:02.494Z,704.00
2022-11-03T07:15:02.623Z,752.00
2022-11-03T07:16:02.543Z,756.00
2022-11-03T07:17:02.466Z,772.00
2022-11-03T07:18:02.457Z,804.00
2022-11-03T07:19:02.466Z,808.00
2022-11-03T07:20:02.429Z,820.00
2022-11-03T07:21:02.424Z,824.00
2022-11-03T07:22:02.426Z,832.00
2022-11-03T07:23:02.407Z,852.00
2022-11-03T07:24:02.388Z,856.00
2022-11-03T07:25:02.364Z,864.00
2022-11-03T07:26:02.363Z,868.00
2022-11-03T07:27:02.354Z,868.00
2022-11-03T07:28:02.329Z,892.00
2022-11-03T07:29:02.337Z,916.00
2022-11-03T07:30:02.805Z,924.00
2022-11-03T07:31:02.307Z,928.00
2022-11-03T07:32:02.302Z,912.00
2022-11-03T07:33:02.287Z,912.00
2022-11-03T07:34:02.278Z,908.00
2022-11-03T07:35:02.263Z,948.00
2022-11-03T07:36:15.628Z,988.00
2022-11-03T07:37:02.309Z,1004.00
2022-11-03T07:38:02.220Z,1000.00
2022-11-03T07:39:02.225Z,984.00
2022-11-03T07:40:02.196Z,968.00
2022-11-03T07:41:02.205Z,984.00
2022-11-03T07:42:02.195Z,1004.00
2022-11-03T07:43:02.160Z,1036.00
2022-11-03T07:44:02.186Z,1052.00
2022-11-03T07:45:02.166Z,1060.00
2022-11-03T07:46:02.144Z,1060.00
2022-11-03T07:47:02.150Z,1068.00
2022-11-03T07:48:04.510Z,1064.00
2022-11-03T07:49:02.093Z,1064.00
2022-11-03T07:50:02.106Z,1044.00
2022-11-03T07:51:02.080Z,1052.00
2022-11-03T07:52:02.072Z,1036.00
2022-11-03T07:53:02.105Z,1052.00
2022-11-03T07:54:02.052Z,1060.00
2022-11-03T07:55:02.029Z,1048.00
2022-11-03T07:56:02.145Z,1004.00
2022-11-03T07:57:02.011Z,1000.00
2022-11-03T07:58:02.028Z,996.00
2022-11-03T07:59:01.987Z,996.00
2022-11-03T08:00:05.300Z,1020.00
2022-11-03T08:01:01.970Z,1000.00
2022-11-03T08:02:02.078Z,984.00
2022-11-03T08:03:01.940Z,972.00
2022-11-03T08:04:02.043Z,960.00
2022-11-03T08:05:01.923Z,920.00
2022-11-03T08:06:03.796Z,884.00
2022-11-03T08:07:01.903Z,868.00
2022-11-03T08:08:01.894Z,888.00
2022-11-03T08:09:01.901Z,884.00
2022-11-03T08:10:01.897Z,896.00
2022-11-03T08:11:01.961Z,904.00
2022-11-03T08:12:01.873Z,880.00
2022-11-03T08:13:01.836Z,860.00
2022-11-03T08:14:01.845Z,828.00
2022-11-03T08:15:01.844Z,868.00
2022-11-03T08:16:01.816Z,868.00
2022-11-03T08:17:01.790Z,848.00
2022-11-03T08:18:01.795Z,872.00
2022-11-03T08:19:01.770Z,900.00
2022-11-03T08:20:01.787Z,912.00
2022-11-03T08:21:01.799Z,916.00
2022-11-03T08:22:01.742Z,920.00
2022-11-03T08:24:01.742Z,908.00
2022-11-03T08:25:01.716Z,916.00
2022-11-03T08:26:01.699Z,916.00
2022-11-03T08:27:01.699Z,892.00
2022-11-03T08:28:01.676Z,904.00
2022-11-03T08:29:01.666Z,908.00
2022-11-03T08:30:01.676Z,928.00
2022-11-03T08:31:02.316Z,952.00
2022-11-03T08:32:01.636Z,952.00
2022-11-03T08:33:01.613Z,976.00
2022-11-03T08:34:01.612Z,1004.00
2022-11-03T08:35:01.603Z,996.00
2022-11-03T08:36:01.582Z,1012.00
2022-11-03T08:37:01.579Z,1000.00
2022-11-03T08:38:01.574Z,988.00
2022-11-03T08:39:01.554Z,984.00
2022-11-03T08:40:01.556Z,992.00
2022-11-03T08:41:01.548Z,1020.00
2022-11-03T08:42:01.552Z,1052.00
2022-11-03T08:43:01.519Z,1056.00
2022-11-03T08:44:01.508Z,1072.00
2022-11-03T08:45:01.482Z,1080.00
2022-11-03T08:46:08.396Z,1088.00
2022-11-03T08:47:01.483Z,1112.00
2022-11-03T08:48:01.467Z,1100.00
2022-11-03T08:49:01.436Z,1112.00
2022-11-03T08:50:01.429Z,1108.00
2022-11-03T08:51:01.419Z,1140.00
2022-11-03T08:52:01.415Z,1164.00
2022-11-03T08:53:01.398Z,1184.00
2022-11-03T08:54:01.411Z,1212.00
2022-11-03T08:55:01.375Z,1224.00
2022-11-03T08:56:01.361Z,1248.00
2022-11-03T08:57:01.392Z,1260.00
2022-11-03T08:58:01.354Z,1276.00
2022-11-03T08:59:01.329Z,1312.00
2022-11-03T09:00:01.325Z,1324.00
2022-11-03T09:01:01.307Z,1332.00
2022-11-03T09:02:01.401Z,1348.00
2022-11-03T09:03:01.298Z,1328.00
2022-11-03T09:04:01.296Z,1332.00
2022-11-03T09:05:01.264Z,1328.00
2022-11-03T09:06:01.264Z,1336.00
2022-11-03T09:07:01.248Z,1308.00
2022-11-03T09:11:01.243Z,1272.00
2022-11-03T09:12:01.188Z,1256.00
2022-11-03T09:13:01.189Z,1276.00
2022-11-03T09:14:01.174Z,1276.00
2022-11-03T09:15:01.149Z,1264.00
2022-11-03T09:16:01.152Z,1312.00
2022-11-03T09:18:01.131Z,1348.00
2022-11-03T09:19:01.136Z,1364.00
2022-11-03T09:20:01.112Z,1344.00
2022-11-03T09:21:01.089Z,1348.00
2022-11-03T09:22:01.095Z,1348.00
2022-11-03T09:23:01.081Z,1352.00
2022-11-03T09:24:01.072Z,1368.00
2022-11-03T09:25:01.061Z,1344.00
2022-11-03T09:26:01.053Z,1332.00
2022-11-03T09:27:02.416Z,1356.00
2022-11-03T09:28:01.009Z,1380.00
2022-11-03T09:29:01.008Z,1428.00
2022-11-03T09:30:14.353Z,1424.00
2022-11-03T09:31:00.988Z,1448.00
2022-11-03T09:32:00.969Z,1460.00
2022-11-03T09:33:00.953Z,1456.00
2022-11-03T09:34:00.947Z,1452.00
2022-11-03T09:35:00.927Z,1504.00
2022-11-03T09:36:00.935Z,1528.00
2022-11-03T09:37:00.913Z,1504.00
2022-11-03T09:38:00.904Z,1472.00
2022-11-03T09:39:00.909Z,1500.00
2022-11-03T09:40:00.888Z,1516.00
2022-11-03T09:41:00.882Z,1512.00
2022-11-03T09:42:00.856Z,1512.00
2022-11-03T09:43:00.902Z,1492.00
2022-11-03T09:44:00.844Z,1492.00
2022-11-03T09:45:00.819Z,1488.00
2022-11-03T09:46:00.822Z,1520.00
2022-11-03T09:47:00.796Z,1544.00
2022-11-03T09:48:00.793Z,1560.00
2022-11-03T09:49:00.779Z,1564.00
2022-11-03T09:50:00.769Z,1588.00
2022-11-03T09:51:00.774Z,1620.00
2022-11-03T09:52:00.743Z,1612.00
2022-11-03T09:53:00.736Z,1628.00
2022-11-03T09:54:00.726Z,1664.00
2022-11-03T09:55:00.712Z,1748.00
2022-11-03T09:56:00.733Z,1764.00
2022-11-03T09:57:00.702Z,1848.00
2022-11-03T09:58:00.695Z,1904.00
2022-11-03T09:59:00.695Z,1964.00
2022-11-03T10:00:00.661Z,2000.00
2022-11-03T10:01:00.687Z,2072.00
2022-11-03T10:02:00.839Z,2116.00
2022-11-03T10:03:00.649Z,2128.00
2022-11-03T10:04:00.622Z,2124.00
2022-11-03T10:05:00.643Z,2252.00
2022-11-03T10:06:00.597Z,2304.00
2022-11-03T10:07:00.587Z,2308.00
2022-11-03T10:08:00.587Z,2376.00
2022-11-03T10:09:00.577Z,2420.00
2022-11-03T10:10:00.541Z,2476.00
2022-11-03T10:11:00.544Z,2516.00
2022-11-03T10:12:00.530Z,2568.00
2022-11-03T10:13:00.535Z,2600.00
2022-11-03T10:14:00.523Z,2636.00
2022-11-03T10:15:00.486Z,2640.00
2022-11-03T10:16:00.486Z,2696.00
2022-11-03T10:17:00.564Z,2708.00
2022-11-03T10:18:00.466Z,2716.00
2022-11-03T10:19:00.476Z,2684.00
2022-11-03T10:20:00.434Z,2596.00
2022-11-03T10:21:00.453Z,2656.00
2022-11-03T10:22:00.424Z,2616.00
2022-11-03T10:23:00.407Z,2588.00
2022-11-03T10:24:00.409Z,2608.00
2022-11-03T10:25:00.439Z,2596.00
2022-11-03T10:26:00.373Z,2552.00
2022-11-03T10:27:00.361Z,2564.00
2022-11-03T10:28:00.361Z,2552.00
2022-11-03T10:29:00.347Z,2552.00
2022-11-03T10:30:00.341Z,2552.00
2022-11-03T10:31:15.732Z,2568.00
2022-11-03T10:32:00.312Z,2588.00
2022-11-03T10:33:00.289Z,2620.00
2022-11-03T10:34:00.304Z,2660.00
2022-11-03T10:35:00.272Z,2716.00
2022-11-03T10:36:00.276Z,2820.00
2022-11-03T10:37:00.305Z,2872.00
2022-11-03T10:38:00.252Z,2908.00
2022-11-03T10:39:00.247Z,2912.00
2022-11-03T10:40:00.220Z,2860.00
2022-11-03T10:41:00.201Z,2816.00
2022-11-03T10:42:00.213Z,2860.00
2022-11-03T10:43:00.177Z,2872.00
2022-11-03T10:44:00.221Z,2860.00
2022-11-03T10:45:00.161Z,2792.00
2022-11-03T10:46:00.147Z,2744.00
2022-11-03T10:47:00.138Z,2756.00
2022-11-03T10:48:00.844Z,2752.00
2022-11-03T10:49:00.183Z,2640.00
2022-11-03T10:50:00.137Z,2576.00
2022-11-03T10:51:00.099Z,2504.00
2022-11-03T10:52:00.089Z,2380.00
2022-11-03T10:53:00.093Z,2312.00
2022-11-03T10:54:00.117Z,2228.00
2022-11-03T10:55:00.102Z,2188.00
2022-11-03T10:56:00.054Z,2164.00
2022-11-03T10:57:00.030Z,2164.00
2022-11-03T10:58:00.038Z,2196.00
2022-11-03T10:59:00.008Z,2180.00
2022-11-03T11:00:00.020Z,2184.00
2022-11-03T11:01:00.073Z,2180.00
2022-11-03T11:02:00.264Z,2180.00
2022-11-03T11:02:59.977Z,2140.00
2022-11-03T11:04:00.015Z,2124.00
2022-11-03T11:04:59.963Z,2100.00
2022-11-03T11:05:59.958Z,2092.00
2022-11-03T11:06:59.931Z,2056.00
2022-11-03T11:08:00.038Z,2032.00
2022-11-03T11:09:00.217Z,2004.00
2022-11-03T11:09:59.916Z,1976.00
2022-11-03T11:10:59.879Z,1944.00
2022-11-03T11:11:59.876Z,1916.00
2022-11-03T11:12:59.860Z,1880.00
2022-11-03T11:13:59.902Z,1848.00
2022-11-03T11:14:59.856Z,1812.00
2022-11-03T11:15:59.849Z,1772.00
2022-11-03T11:16:59.837Z,1732.00
2022-11-03T11:17:59.827Z,1696.00
2022-11-03T11:18:59.794Z,1656.00
2022-11-03T11:19:59.820Z,1620.00
2022-11-03T11:20:59.801Z,1596.00
2022-11-03T11:21:59.804Z,1576.00
2022-11-03T11:22:59.747Z,1556.00
2022-11-03T11:23:59.755Z,1536.00
2022-11-03T11:24:59.728Z,1520.00
2022-11-03T11:25:59.723Z,1508.00
2022-11-03T11:26:59.706Z,1500.00
2022-11-03T11:27:59.737Z,1496.00
2022-11-03T11:28:59.703Z,1492.00
2022-11-03T11:29:59.681Z,1492.00
2022-11-03T11:30:59.679Z,1492.00
2022-11-03T11:31:59.654Z,1488.00
2022-11-03T11:32:59.639Z,1496.00
2022-11-03T11:33:59.637Z,1508.00
2022-11-03T11:34:59.617Z,1528.00
2022-11-03T11:35:59.646Z,1552.00
2022-11-03T11:36:59.601Z,1584.00
2022-11-03T11:37:59.591Z,1616.00
2022-11-03T11:38:59.588Z,1644.00
2022-11-03T11:39:59.563Z,1672.00
2022-11-03T11:40:59.558Z,1688.00
2022-11-03T11:41:59.552Z,1696.00
2022-11-03T11:42:59.529Z,1688.00
2022-11-03T11:43:59.524Z,1676.00
2022-11-03T11:44:59.514Z,1660.00
2022-11-03T11:45:59.513Z,1640.00
2022-11-03T11:46:59.508Z,1624.00
2022-11-03T11:47:59.508Z,1608.00
2022-11-03T11:48:59.610Z,1600.00
2022-11-03T11:49:59.463Z,1592.00
2022-11-03T11:50:59.456Z,1588.00
2022-11-03T11:51:59.442Z,1592.00
2022-11-03T11:52:59.430Z,1588.00
2022-11-03T11:54:17.214Z,1588.00
2022-11-03T11:54:59.406Z,1588.00
2022-11-03T11:55:59.492Z,1576.00
2022-11-03T11:56:59.380Z,1564.00
2022-11-03T11:57:59.397Z,1552.00
2022-11-03T11:58:59.366Z,1544.00
2022-11-03T11:59:59.356Z,1536.00
2022-11-03T12:00:59.357Z,1524.00
2022-11-03T12:01:59.356Z,1516.00
2022-11-03T12:02:59.383Z,1504.00
2022-11-03T12:03:59.451Z,1500.00
2022-11-03T12:04:59.290Z,1492.00
2022-11-03T12:05:59.300Z,1488.00
2022-11-03T12:06:59.274Z,1488.00
2022-11-03T12:07:59.261Z,1496.00
2022-11-03T12:08:59.255Z,1504.00
2022-11-03T12:09:59.240Z,1512.00
2022-11-03T12:10:59.296Z,1520.00
2022-11-03T12:12:00.684Z,1532.00
2022-11-03T12:12:59.210Z,1536.00
2022-11-03T12:13:59.233Z,1544.00
2022-11-03T12:14:59.187Z,1556.00
2022-11-03T12:15:59.178Z,1560.00
2022-11-03T12:16:59.162Z,1576.00
2022-11-03T12:17:59.159Z,1600.00
2022-11-03T12:18:59.157Z,1612.00
2022-11-03T12:19:59.140Z,1624.00
2022-11-03T12:20:59.118Z,1640.00
2022-11-03T12:21:59.121Z,1636.00
2022-11-03T12:22:59.096Z,1628.00
2022-11-03T12:23:59.089Z,1620.00
2022-11-03T12:24:59.088Z,1612.00
2022-11-03T12:25:59.102Z,1608.00
2022-11-03T12:26:59.050Z,1604.00
2022-11-03T12:27:59.044Z,1604.00
2022-11-03T12:28:59.049Z,1608.00
2022-11-03T12:29:59.029Z,1616.00
2022-11-03T12:31:59.008Z,1632.00
2022-11-03T12:32:58.989Z,1636.00
2022-11-03T12:33:58.980Z,1632.00
2022-11-03T12:34:58.977Z,1624.00
2022-11-03T12:35:58.971Z,1616.00
2022-11-03T12:36:58.951Z,1612.00
2022-11-03T12:37:58.946Z,1600.00
2022-11-03T12:38:58.923Z,1592.00
2022-11-03T12:39:58.919Z,1588.00
2022-11-03T12:40:58.911Z,1572.00
2022-11-03T12:41:58.901Z,1564.00
2022-11-03T12:42:58.978Z,1556.00
2022-11-03T12:43:58.934Z,1548.00
2022-11-03T12:44:58.864Z,1536.00
2022-11-03T12:45:58.855Z,1524.00
2022-11-03T12:46:58.834Z,1516.00
2022-11-03T12:47:58.832Z,1500.00
2022-11-03T12:48:58.819Z,1488.00